Anandale, Louisiana
Current Conditions -  °F | °C
As of 4:53 PM on Friday 31 Oct 2014 (Local Time) from KAEX Reporting Station
Few Clouds Few Clouds  
Wind Chill: 70°   Ceiling: Unl
Heat Index: 70°   Visibility: 10mi
Dew Point: 45°   Wind: 17mph
Humidity: 41%   Direction: 330°NNW
Pressure: 30.13"   Gusts: 22mph
Location:  31.2655°N, 92.4705°W
Report Text: KAEX 312153Z 33015G19KT 10SM FEW055 21/07 A3013 RMK AO2 SLP206 T02110072
Loading
Personal Weather Stations






























Interactive Weather Map
Tropical Storm Tracking
New forecast layout! Learn more

10-Day Weather Forecast

Advertisements
Track Severe Weather on mobile